Time;durP1;ratioP1;P1;durP2;ratioP2;P2;SDS_P1;SDS_P2;PMS_P1;PMS_P2;Temp;Humidity;BMP_temperature;BMP_pressure;BME280_temperature;BME280_humidity;BME280_pressure;Samples;Min_cycle;Max_cycle;Signal;HPM_P1;HPM_P2
2021/03/11 00:00:32;;;;;;;46.25;27.50;;;5.30;99.90;;;;;;4985673;28;20150;-73
2021/03/11 00:03:10;;;;;;;57.28;29.92;;;5.30;99.90;;;;;;4998967;28;20054;-73
2021/03/11 00:05:38;;;;;;;51.05;27.08;;;5.20;99.90;;;;;;4985504;28;20132;-74
2021/03/11 00:08:05;;;;;;;54.42;29.33;;;5.20;99.90;;;;;;4983347;28;20053;-74
2021/03/11 00:10:32;;;;;;;51.63;28.90;;;5.20;99.90;;;;;;4984573;28;20057;-74
2021/03/11 00:12:59;;;;;;;50.45;26.85;;;5.20;99.90;;;;;;4984220;28;20062;-73
2021/03/11 00:15:26;;;;;;;56.33;30.25;;;5.20;99.90;;;;;;4984498;28;20047;-74
2021/03/11 00:17:53;;;;;;;48.53;28.33;;;5.10;99.90;;;;;;4985038;28;20072;-74
2021/03/11 00:20:29;;;;;;;54.47;30.15;;;5.10;99.90;;;;;;5016643;28;20129;-74
2021/03/11 00:22:56;;;;;;;50.42;27.65;;;5.10;99.90;;;;;;4984325;28;20164;-74
2021/03/11 00:25:26;;;;;;;58.65;31.45;;;5.10;99.90;;;;;;5000750;28;20053;-74
2021/03/11 00:27:52;;;;;;;49.35;28.55;;;5.10;99.90;;;;;;4985440;28;20046;-73
2021/03/11 00:30:20;;;;;;;62.28;31.33;;;5.00;99.90;;;;;;4983951;28;20478;-74
2021/03/11 00:32:48;;;;;;;49.38;28.35;;;5.10;99.90;;;;;;4985181;28;20054;-75
2021/03/11 00:35:15;;;;;;;46.42;26.90;;;5.00;99.90;;;;;;4986394;28;20050;-74
2021/03/11 00:37:43;;;;;;;44.33;25.60;;;5.00;99.90;;;;;;4987261;28;20081;-75
2021/03/11 00:40:11;;;;;;;51.60;29.40;;;5.00;99.90;;;;;;5002098;28;20054;-75
2021/03/11 00:42:38;;;;;;;47.85;26.67;;;5.10;99.90;;;;;;4985748;28;20422;-75
2021/03/11 00:45:06;;;;;;;61.88;30.98;;;5.00;99.90;;;;;;4988459;28;20141;-74
2021/03/11 00:47:32;;;;;;;44.45;23.75;;;5.00;99.90;;;;;;4987786;28;20565;-74
2021/03/11 00:49:59;;;;;;;54.53;30.13;;;5.00;99.90;;;;;;4987665;28;20054;-74
2021/03/11 00:52:26;;;;;;;56.00;30.45;;;5.00;99.90;;;;;;5003545;28;20073;-74
2021/03/11 00:54:53;;;;;;;48.22;25.00;;;5.00;99.90;;;;;;5004053;28;20050;-74
2021/03/11 00:57:20;;;;;;;52.63;26.65;;;4.90;99.90;;;;;;5003336;28;20072;-74
2021/03/11 00:59:47;;;;;;;56.90;29.55;;;4.90;99.90;;;;;;4984143;28;20057;-74
2021/03/11 01:02:14;;;;;;;54.55;29.60;;;4.90;99.90;;;;;;4987139;28;20088;-74
2021/03/11 01:04:40;;;;;;;52.03;26.75;;;5.00;99.90;;;;;;4987374;28;20054;-74
2021/03/11 01:07:07;;;;;;;53.17;28.38;;;4.90;99.90;;;;;;4986592;28;20080;-74
2021/03/11 01:09:34;;;;;;;54.83;28.15;;;4.90;99.90;;;;;;5003186;28;20051;-74
2021/03/11 01:12:00;;;;;;;52.88;28.77;;;4.90;99.90;;;;;;4987041;28;20455;-75
2021/03/11 01:14:27;;;;;;;56.55;26.77;;;4.90;99.90;;;;;;4987905;28;20050;-74
2021/03/11 01:16:53;;;;;;;53.08;27.70;;;5.00;99.90;;;;;;4988113;28;20062;-75
2021/03/11 01:19:20;;;;;;;44.33;24.80;;;5.00;99.90;;;;;;4988837;28;20046;-75
2021/03/11 01:21:47;;;;;;;58.22;30.98;;;5.00;99.90;;;;;;4970386;28;20582;-74
2021/03/11 01:24:16;;;;;;;56.58;28.83;;;5.00;99.90;;;;;;4986731;28;20109;-74
2021/03/11 01:26:43;;;;;;;63.97;30.83;;;5.00;99.90;;;;;;4986908;28;20054;-74
2021/03/11 01:29:09;;;;;;;59.80;31.48;;;5.00;99.90;;;;;;4988629;28;20055;-74
2021/03/11 01:31:35;;;;;;;55.30;28.88;;;5.00;99.90;;;;;;4988217;28;20658;-74
2021/03/11 01:34:02;;;;;;;62.03;31.02;;;5.00;99.90;;;;;;4987111;28;20078;-74
2021/03/11 01:36:28;;;;;;;59.00;31.70;;;4.90;99.90;;;;;;4953121;28;20042;-74
2021/03/11 01:38:54;;;;;;;57.15;28.73;;;5.00;99.90;;;;;;5001451;28;20064;-74
2021/03/11 01:41:21;;;;;;;63.55;32.45;;;5.00;99.90;;;;;;4985289;28;20054;-75
2021/03/11 01:43:48;;;;;;;56.05;29.02;;;5.00;99.90;;;;;;4986524;28;20137;-75
2021/03/11 01:46:15;;;;;;;64.82;30.20;;;4.90;99.90;;;;;;4985922;28;20054;-74
2021/03/11 01:48:41;;;;;;;56.17;29.20;;;4.90;99.90;;;;;;4987055;28;20058;-75
2021/03/11 01:51:08;;;;;;;60.03;30.42;;;5.00;99.90;;;;;;4986639;28;20054;-75
2021/03/11 01:53:34;;;;;;;56.60;28.77;;;5.00;99.90;;;;;;4985514;28;20046;-75
2021/03/11 01:56:01;;;;;;;62.97;30.42;;;5.00;99.90;;;;;;4986542;28;20082;-75
2021/03/11 01:58:27;;;;;;;60.22;29.48;;;5.00;99.90;;;;;;4988120;28;20468;-76
2021/03/11 02:00:54;;;;;;;54.92;29.77;;;5.00;99.90;;;;;;4985620;28;20061;-75
2021/03/11 02:03:21;;;;;;;59.83;30.38;;;5.00;99.90;;;;;;4985604;28;20054;-75
2021/03/11 02:05:48;;;;;;;55.85;29.65;;;5.00;99.90;;;;;;4973823;28;20045;-75
2021/03/11 02:08:15;;;;;;;60.90;30.40;;;5.00;99.90;;;;;;5005118;28;20147;-75
2021/03/11 02:10:42;;;;;;;61.47;30.88;;;5.00;99.90;;;;;;4996162;28;20054;-75
2021/03/11 02:13:39;;;;;;;64.10;31.50;;;5.00;99.90;;;;;;4984080;28;20558;-74
2021/03/11 02:16:18;;;;;;;61.45;30.17;;;5.10;99.90;;;;;;4970890;28;20053;-74
2021/03/11 02:19:24;;;;;;;52.83;26.77;;;5.10;99.90;;;;;;4978421;28;20149;-74
2021/03/11 02:21:59;;;;;;;64.60;31.40;;;5.00;99.90;;;;;;4984904;28;20193;-75
2021/03/11 02:25:07;;;;;;;61.20;32.38;;;5.00;99.90;;;;;;4969491;28;20611;-76
2021/03/11 02:28:08;;;;;;;53.35;27.80;;;5.10;99.90;;;;;;4985019;28;20050;-75
2021/03/11 02:30:34;;;;;;;57.70;30.67;;;5.10;99.90;;;;;;4977782;28;20038;-74
2021/03/11 02:33:03;;;;;;;59.75;29.67;;;5.10;99.90;;;;;;4977080;28;20054;-76
2021/03/11 02:35:31;;;;;;;56.47;28.52;;;5.20;99.90;;;;;;4985321;28;20117;-76
2021/03/11 02:37:58;;;;;;;51.95;27.17;;;5.20;99.90;;;;;;4969288;28;20097;-75
2021/03/11 02:40:29;;;;;;;52.63;28.65;;;5.20;99.90;;;;;;4977161;28;20063;-75
2021/03/11 02:42:58;;;;;;;53.90;27.90;;;5.20;99.90;;;;;;4968130;28;20049;-75
2021/03/11 02:45:31;;;;;;;51.72;29.08;;;5.20;99.90;;;;;;4969508;28;20092;-74
2021/03/11 02:48:04;;;;;;;54.97;28.27;;;5.20;99.90;;;;;;4954046;28;20054;-75
2021/03/11 02:50:32;;;;;;;64.20;30.38;;;5.30;99.90;;;;;;4985051;28;20054;-75
2021/03/11 02:53:01;;;;;;;53.50;29.00;;;5.30;99.90;;;;;;4986411;28;20061;-75
2021/03/11 02:55:30;;;;;;;52.80;28.30;;;5.30;99.90;;;;;;4985254;28;20060;-74
2021/03/11 02:57:58;;;;;;;53.42;29.27;;;5.30;99.90;;;;;;4969324;28;20064;-75
2021/03/11 03:00:25;;;;;;;63.63;30.35;;;5.20;99.90;;;;;;4984817;28;20582;-75
2021/03/11 03:02:53;;;;;;;53.80;29.38;;;5.20;99.90;;;;;;5018364;28;20523;-75
2021/03/11 03:05:22;;;;;;;55.10;28.42;;;5.20;99.90;;;;;;5001628;28;20046;-75
2021/03/11 03:07:50;;;;;;;48.63;26.55;;;5.20;99.90;;;;;;5001482;28;20569;-75
2021/03/11 03:10:19;;;;;;;56.20;29.10;;;5.20;99.90;;;;;;5014640;28;20049;-76
2021/03/11 03:12:48;;;;;;;50.95;26.63;;;5.20;99.90;;;;;;5009550;28;20133;-75
2021/03/11 03:15:18;;;;;;;51.88;26.52;;;5.20;99.90;;;;;;5001042;28;20068;-75
2021/03/11 03:17:46;;;;;;;52.25;27.13;;;5.30;99.90;;;;;;4968305;28;20265;-74
2021/03/11 03:20:15;;;;;;;49.88;26.13;;;5.20;99.90;;;;;;4990481;28;20058;-74
2021/03/11 03:22:42;;;;;;;53.40;28.00;;;5.20;99.90;;;;;;4984788;28;20069;-74
2021/03/11 03:25:10;;;;;;;47.47;25.20;;;5.30;99.90;;;;;;4984375;28;20058;-73
2021/03/11 03:27:38;;;;;;;45.13;25.13;;;5.30;99.90;;;;;;4985053;28;20161;-74
2021/03/11 03:30:08;;;;;;;44.05;24.65;;;5.40;99.90;;;;;;4984510;28;20101;-74
2021/03/11 03:32:35;;;;;;;39.55;24.25;;;5.40;99.90;;;;;;4952539;28;20105;-77
2021/03/11 03:35:05;;;;;;;33.45;19.63;;;5.50;99.90;;;;;;4983412;28;20046;-73
2021/03/11 03:37:31;;;;;;;35.50;21.13;;;5.60;99.90;;;;;;4985860;28;20042;-74
2021/03/11 03:39:58;;;;;;;28.63;19.25;;;5.70;99.90;;;;;;4964935;28;20620;-75
2021/03/11 03:42:27;;;;;;;36.28;22.77;;;5.70;99.90;;;;;;4961484;28;20074;-75
2021/03/11 03:44:55;;;;;;;32.78;21.48;;;5.80;99.90;;;;;;4967236;28;20054;-74
2021/03/11 03:47:22;;;;;;;27.70;19.02;;;5.80;99.90;;;;;;4981174;28;20137;-74
2021/03/11 03:49:49;;;;;;;32.50;21.25;;;5.80;99.90;;;;;;4975386;28;20047;-75
2021/03/11 03:52:17;;;;;;;28.98;18.77;;;5.90;99.90;;;;;;4983872;28;20061;-75
2021/03/11 03:54:45;;;;;;;24.10;16.50;;;5.90;99.90;;;;;;4985803;28;20046;-74
2021/03/11 03:57:16;;;;;;;23.50;15.65;;;6.00;99.90;;;;;;4986099;28;20063;-74
2021/03/11 03:59:44;;;;;;;23.83;17.30;;;6.20;99.90;;;;;;4984270;28;20096;-75
2021/03/11 04:02:13;;;;;;;24.17;17.38;;;6.30;99.90;;;;;;5000712;28;20108;-75
2021/03/11 04:04:43;;;;;;;20.10;16.55;;;6.30;99.90;;;;;;4969086;28;20065;-75
2021/03/11 04:07:22;;;;;;;20.95;16.80;;;6.40;99.90;;;;;;4983963;28;20438;-74
2021/03/11 04:09:49;;;;;;;17.42;14.05;;;6.40;99.90;;;;;;4989724;28;20141;-74
2021/03/11 04:12:18;;;;;;;17.00;14.77;;;6.50;99.90;;;;;;4987288;28;20105;-75
2021/03/11 04:14:45;;;;;;;18.02;15.25;;;6.60;99.90;;;;;;4981342;28;20058;-75
2021/03/11 04:17:13;;;;;;;15.90;14.18;;;6.70;99.90;;;;;;4989243;28;20043;-74
2021/03/11 04:19:40;;;;;;;14.90;12.95;;;6.70;99.90;;;;;;5002037;28;20547;-74
2021/03/11 04:22:07;;;;;;;18.30;15.02;;;6.80;99.90;;;;;;4984358;28;20062;-75
2021/03/11 04:24:35;;;;;;;14.70;13.23;;;6.90;99.90;;;;;;4985708;28;20157;-75
2021/03/11 04:27:05;;;;;;;17.33;15.52;;;7.00;99.90;;;;;;4968184;28;20054;-75
2021/03/11 04:29:32;;;;;;;17.73;15.90;;;6.90;99.90;;;;;;4988034;28;20431;-75
2021/03/11 04:32:00;;;;;;;15.35;13.85;;;7.00;99.90;;;;;;4989288;28;20050;-76
2021/03/11 04:34:27;;;;;;;19.27;15.15;;;7.00;99.90;;;;;;4988144;28;20050;-75
2021/03/11 04:36:54;;;;;;;21.42;16.65;;;7.00;99.90;;;;;;4967731;28;20049;-76
2021/03/11 04:39:22;;;;;;;15.45;13.85;;;7.00;99.90;;;;;;4984841;28;20047;-74
2021/03/11 04:41:51;;;;;;;18.60;15.23;;;7.00;99.90;;;;;;4977575;28;20502;-74
2021/03/11 04:44:22;;;;;;;16.75;15.05;;;7.10;99.90;;;;;;5004197;28;20046;-74
2021/03/11 04:46:49;;;;;;;18.73;16.30;;;7.10;99.90;;;;;;4970551;28;20054;-73
2021/03/11 04:49:16;;;;;;;20.95;15.02;;;7.10;99.90;;;;;;4988158;28;20555;-74
2021/03/11 04:51:43;;;;;;;15.73;14.05;;;7.10;99.90;;;;;;5003632;28;20046;-75
2021/03/11 04:54:10;;;;;;;20.27;15.98;;;7.10;99.90;;;;;;4988638;28;20046;-74
2021/03/11 04:56:51;;;;;;;20.85;15.50;;;7.10;99.90;;;;;;4987710;28;20050;-74
2021/03/11 04:59:18;;;;;;;22.27;15.57;;;7.00;99.90;;;;;;5002980;28;20050;-74
2021/03/11 05:01:52;;;;;;;17.77;15.35;;;7.00;99.90;;;;;;4988433;28;20054;-73
2021/03/11 05:04:20;;;;;;;22.98;17.50;;;6.90;99.90;;;;;;4989227;28;20058;-77
2021/03/11 05:06:46;;;;;;;19.02;15.35;;;6.90;99.90;;;;;;4986668;28;20162;-75
2021/03/11 05:09:12;;;;;;;19.58;15.73;;;6.80;99.90;;;;;;4985997;28;20054;-74
2021/03/11 05:11:42;;;;;;;22.08;15.68;;;6.90;99.90;;;;;;4985836;28;20098;-75
2021/03/11 05:14:08;;;;;;;18.75;15.25;;;7.00;99.90;;;;;;4983721;28;20046;-74
2021/03/11 05:16:34;;;;;;;19.75;15.55;;;7.00;99.90;;;;;;4986127;28;20451;-74
2021/03/11 05:19:01;;;;;;;18.65;16.40;;;7.00;99.90;;;;;;4986368;28;20054;-74
2021/03/11 05:21:27;;;;;;;16.58;14.75;;;7.10;99.90;;;;;;4986448;28;20049;-74
2021/03/11 05:23:58;;;;;;;18.23;16.33;;;7.10;99.90;;;;;;5003252;28;20054;-74
2021/03/11 05:26:26;;;;;;;16.50;14.88;;;7.20;99.90;;;;;;4987421;28;20109;-73
2021/03/11 05:28:53;;;;;;;14.93;13.63;;;7.30;99.90;;;;;;4995739;28;20110;-75
2021/03/11 05:31:19;;;;;;;18.35;16.48;;;7.40;99.90;;;;;;4968736;28;20051;-75
2021/03/11 05:33:46;;;;;;;17.13;13.70;;;7.40;99.90;;;;;;4983587;28;20141;-74
2021/03/11 05:36:12;;;;;;;14.32;13.15;;;7.50;99.90;;;;;;4979767;28;20046;-74
2021/03/11 05:38:43;;;;;;;14.65;13.35;;;7.50;99.90;;;;;;4967971;28;20066;-75
2021/03/11 05:41:10;;;;;;;13.88;12.65;;;7.60;99.90;;;;;;4955532;28;20066;-75
2021/03/11 05:43:39;;;;;;;14.30;13.15;;;7.60;99.90;;;;;;4982612;28;20599;-75
2021/03/11 05:46:06;;;;;;;13.43;12.50;;;7.70;99.90;;;;;;4982981;28;20054;-74
2021/03/11 05:48:35;;;;;;;14.32;13.20;;;7.70;99.90;;;;;;4977545;28;20458;-74
2021/03/11 05:51:01;;;;;;;13.95;12.80;;;7.80;99.90;;;;;;4986510;28;20058;-74
2021/03/11 05:53:28;;;;;;;14.45;13.32;;;7.80;99.90;;;;;;4985730;28;20050;-75
2021/03/11 05:55:55;;;;;;;13.98;12.88;;;7.80;99.90;;;;;;4970617;28;20125;-74
2021/03/11 05:58:21;;;;;;;13.07;11.98;;;7.90;99.90;;;;;;5002764;28;20058;-75
2021/03/11 06:00:47;;;;;;;12.68;11.65;;;7.80;99.90;;;;;;4987701;28;20105;-75
2021/03/11 06:03:14;;;;;;;13.10;12.18;;;7.90;99.90;;;;;;4986117;28;20060;-73
2021/03/11 06:05:41;;;;;;;13.55;12.65;;;7.80;99.90;;;;;;4986165;28;20046;-75
2021/03/11 06:08:08;;;;;;;13.70;12.80;;;7.80;99.90;;;;;;5002098;28;20156;-75
2021/03/11 06:10:36;;;;;;;13.10;12.20;;;7.80;99.90;;;;;;4962546;28;20046;-75
2021/03/11 06:13:04;;;;;;;14.32;13.35;;;7.80;99.90;;;;;;4984793;28;20062;-74
2021/03/11 06:15:36;;;;;;;11.93;11.32;;;7.80;99.90;;;;;;4985806;28;20080;-74
2021/03/11 06:18:07;;;;;;;13.05;12.15;;;7.90;99.90;;;;;;4971462;28;20462;-73
2021/03/11 06:20:35;;;;;;;11.10;10.20;;;7.80;99.90;;;;;;4985557;28;20240;-74
2021/03/11 06:23:02;;;;;;;8.60;7.70;;;7.70;99.90;;;;;;4952608;28;20058;-75
2021/03/11 06:25:29;;;;;;;7.93;7.13;;;7.60;99.90;;;;;;4985967;28;20057;-76
2021/03/11 06:28:00;;;;;;;6.78;6.15;;;7.60;99.90;;;;;;4987403;28;20078;-72
2021/03/11 06:30:36;;;;;;;7.47;6.75;;;7.50;99.90;;;;;;4985258;28;20484;-74
2021/03/11 06:33:05;;;;;;;8.45;6.18;;;7.50;99.90;;;;;;4986023;28;20064;-73
2021/03/11 06:35:33;;;;;;;7.53;6.78;;;7.40;99.90;;;;;;4984964;28;20533;-73
2021/03/11 06:38:00;;;;;;;8.68;7.03;;;7.40;99.90;;;;;;4969245;28;20128;-73
2021/03/11 06:40:28;;;;;;;6.60;5.95;;;7.40;99.90;;;;;;4969194;28;20065;-72
2021/03/11 06:43:12;;;;;;;7.00;6.35;;;7.30;99.90;;;;;;4985650;28;20050;-73
2021/03/11 06:45:39;;;;;;;9.20;6.32;;;7.30;99.90;;;;;;5001336;28;20085;-73
2021/03/11 06:48:24;;;;;;;7.22;6.13;;;7.20;99.90;;;;;;5017927;28;20081;-73
2021/03/11 06:50:56;;;;;;;7.97;5.65;;;7.20;99.90;;;;;;5018111;28;20054;-73
2021/03/11 06:53:23;;;;;;;12.07;6.75;;;7.20;99.90;;;;;;5001376;28;20183;-74
2021/03/11 06:55:49;;;;;;;7.78;6.68;;;7.20;99.90;;;;;;5001607;28;20145;-74
2021/03/11 06:58:26;;;;;;;9.95;5.90;;;7.10;99.90;;;;;;4986742;28;20080;-74
2021/03/11 07:01:06;;;;;;;9.30;6.30;;;7.10;99.90;;;;;;4984638;28;20050;-73
2021/03/11 07:03:40;;;;;;;8.90;6.03;;;7.10;99.90;;;;;;4985759;28;20522;-74
2021/03/11 07:06:08;;;;;;;10.00;5.95;;;7.10;99.90;;;;;;4985496;28;20178;-75
2021/03/11 07:08:49;;;;;;;11.07;6.68;;;7.10;99.90;;;;;;4968635;28;20108;-75
2021/03/11 07:11:16;;;;;;;9.45;6.75;;;7.20;99.90;;;;;;4995518;28;20074;-75
2021/03/11 07:13:43;;;;;;;9.52;7.70;;;7.20;99.90;;;;;;5007862;28;20538;-75
2021/03/11 07:16:20;;;;;;;6.82;6.22;;;7.20;99.90;;;;;;4983760;28;20050;-74
2021/03/11 07:18:48;;;;;;;6.75;5.93;;;7.20;99.90;;;;;;4984651;28;20054;-74
2021/03/11 07:21:45;;;;;;;6.68;6.18;;;7.30;99.90;;;;;;4984821;28;20134;-75
2021/03/11 07:24:13;;;;;;;7.60;6.88;;;7.30;99.90;;;;;;4968612;28;20478;-75
2021/03/11 07:26:56;;;;;;;6.70;6.20;;;7.40;99.90;;;;;;4969146;28;20117;-76
2021/03/11 07:29:23;;;;;;;7.30;6.60;;;7.40;99.90;;;;;;4969327;28;20050;-75
2021/03/11 07:32:02;;;;;;;7.30;6.60;;;7.50;99.90;;;;;;5000772;28;20490;-75
2021/03/11 07:34:32;;;;;;;7.85;7.25;;;7.50;99.90;;;;;;4985508;28;20153;-75
2021/03/11 07:37:00;;;;;;;8.10;7.50;;;7.50;99.90;;;;;;4984645;28;20073;-75
2021/03/11 07:39:37;;;;;;;8.80;8.20;;;7.50;99.90;;;;;;4984521;28;20319;-75
2021/03/11 07:42:06;;;;;;;8.30;7.53;;;7.60;99.90;;;;;;4984444;28;20714;-75
2021/03/11 07:44:33;;;;;;;7.97;7.47;;;7.70;99.90;;;;;;4989946;28;20064;-76
2021/03/11 07:47:01;;;;;;;8.00;7.30;;;7.70;99.90;;;;;;4972435;28;20046;-75
2021/03/11 07:49:28;;;;;;;8.00;7.50;;;7.70;99.90;;;;;;4988874;28;20056;-75
2021/03/11 07:51:58;;;;;;;8.40;7.60;;;7.70;99.90;;;;;;4987814;28;20054;-75
2021/03/11 07:54:25;;;;;;;8.50;8.02;;;7.80;99.90;;;;;;5004700;28;20045;-75
2021/03/11 07:56:52;;;;;;;8.43;8.02;;;7.80;99.90;;;;;;4964309;28;20049;-75
2021/03/11 07:59:19;;;;;;;8.88;8.38;;;7.90;99.90;;;;;;4990762;28;20092;-75
2021/03/11 08:01:50;;;;;;;8.82;8.32;;;7.90;99.90;;;;;;4986794;28;20116;-74
2021/03/11 08:04:22;;;;;;;9.27;8.77;;;7.90;99.90;;;;;;5013679;28;20054;-75
2021/03/11 08:06:49;;;;;;;9.25;8.75;;;7.90;99.90;;;;;;4990622;28;20132;-75
2021/03/11 08:09:38;;;;;;;8.45;7.95;;;8.00;99.90;;;;;;5004807;28;20046;-75
2021/03/11 08:12:29;;;;;;;8.40;7.97;;;8.00;99.90;;;;;;4983758;28;20101;-76
2021/03/11 08:14:57;;;;;;;8.43;8.02;;;8.10;99.90;;;;;;5001463;28;20476;-75
2021/03/11 08:17:35;;;;;;;8.75;8.13;;;8.10;99.90;;;;;;4989643;28;20046;-73
2021/03/11 08:20:05;;;;;;;9.23;8.73;;;8.20;99.90;;;;;;4990601;28;20093;-74
2021/03/11 08:22:55;;;;;;;9.48;8.90;;;8.20;99.90;;;;;;5006479;28;20053;-74
2021/03/11 08:25:50;;;;;;;9.32;8.82;;;8.30;99.90;;;;;;4985200;28;20183;-76
2021/03/11 08:28:17;;;;;;;;;;;8.40;99.90;;;;;;4958332;28;20061;-75
2021/03/11 08:30:46;;;;;;;9.38;8.73;;;8.40;99.90;;;;;;4984724;28;19922;-75
2021/03/11 08:33:34;;;;;;;9.43;9.02;;;8.50;99.90;;;;;;4967969;28;20134;-76
2021/03/11 08:36:02;;;;;;;9.55;9.02;;;8.50;99.90;;;;;;4967968;28;20058;-75
2021/03/11 08:38:31;;;;;;;10.18;9.57;;;8.50;99.90;;;;;;4989310;28;20050;-76
2021/03/11 08:41:03;;;;;;;9.80;9.20;;;8.60;99.90;;;;;;4985476;28;20658;-75
2021/03/11 08:43:38;;;;;;;10.18;9.57;;;8.70;99.90;;;;;;4971294;28;20249;-75
2021/03/11 08:46:09;;;;;;;11.13;10.23;;;8.60;99.90;;;;;;4974069;28;20069;-75
2021/03/11 08:48:46;;;;;;;10.75;10.25;;;8.60;99.90;;;;;;5003990;28;20142;-75
2021/03/11 08:51:21;;;;;;;12.00;11.48;;;8.70;99.90;;;;;;4989068;28;20054;-75
2021/03/11 08:53:53;;;;;;;10.48;9.88;;;8.80;99.90;;;;;;5003293;28;20498;-75
2021/03/11 08:56:20;;;;;;;13.75;13.15;;;9.10;99.90;;;;;;4971382;28;20137;-74
2021/03/11 08:59:07;;;;;;;12.73;12.13;;;9.40;99.90;;;;;;4987646;28;20236;-75
2021/03/11 09:02:01;;;;;;;13.18;12.57;;;9.70;99.90;;;;;;5003328;28;20058;-76
2021/03/11 09:04:34;;;;;;;14.35;13.73;;;9.70;99.90;;;;;;4987456;28;20065;-75
2021/03/11 09:07:02;;;;;;;13.02;12.50;;;9.60;99.90;;;;;;5003594;28;20058;-75
2021/03/11 09:09:36;;;;;;;15.07;14.43;;;9.90;99.90;;;;;;4987479;28;20057;-76
2021/03/11 09:12:16;;;;;;;15.25;14.50;;;10.30;99.90;;;;;;4986981;28;20104;-74
2021/03/11 09:14:46;;;;;;;13.15;12.57;;;10.50;99.90;;;;;;4952353;28;20058;-74
2021/03/11 09:17:14;;;;;;;13.15;12.55;;;10.40;99.90;;;;;;4966608;28;20146;-74
2021/03/11 09:19:49;;;;;;;13.57;12.98;;;10.10;99.90;;;;;;4996839;28;20066;-75
2021/03/11 09:22:24;;;;;;;13.23;12.30;;;9.90;99.90;;;;;;4986408;28;20050;-74
2021/03/11 09:25:17;;;;;;;9.80;9.18;;;10.10;99.90;;;;;;5002607;28;20048;-74
2021/03/11 09:28:03;;;;;;;9.13;8.63;;;10.40;99.90;;;;;;4960180;28;20059;-76
2021/03/11 09:30:37;;;;;;;9.57;9.07;;;10.30;99.90;;;;;;4952258;28;20435;-74
2021/03/11 09:33:08;;;;;;;10.05;9.40;;;10.10;99.90;;;;;;5002329;28;20148;-74
2021/03/11 09:35:35;;;;;;;10.27;9.55;;;10.00;99.90;;;;;;4986258;28;20046;-74
2021/03/11 09:38:03;;;;;;;9.38;8.90;;;9.90;99.90;;;;;;4986592;28;20062;-75
2021/03/11 09:40:40;;;;;;;9.68;9.23;;;9.80;99.90;;;;;;4979378;28;20058;-76
2021/03/11 09:43:13;;;;;;;10.23;9.63;;;9.90;99.90;;;;;;4982229;28;20088;-74
2021/03/11 09:45:42;;;;;;;10.07;9.48;;;9.90;99.90;;;;;;4985309;28;20050;-75
2021/03/11 09:48:12;;;;;;;10.23;9.63;;;9.90;99.90;;;;;;4978277;28;20595;-74
2021/03/11 09:50:48;;;;;;;10.63;9.88;;;9.80;99.90;;;;;;5001496;28;20050;-74
2021/03/11 09:53:14;;;;;;;;;;;9.80;99.90;;;;;;4985318;28;20153;-74
2021/03/11 09:55:41;;;;;;;9.63;8.82;;;9.80;99.90;;;;;;4985770;28;20063;-75
2021/03/11 09:58:16;;;;;;;10.30;9.60;;;9.80;99.90;;;;;;5002635;28;20628;-76
2021/03/11 10:00:45;;;;;;;10.60;9.88;;;9.80;99.90;;;;;;4975137;28;20043;-76
2021/03/11 10:03:16;;;;;;;10.00;9.40;;;9.80;99.90;;;;;;4986142;28;20050;-75
2021/03/11 10:05:44;;;;;;;10.73;10.10;;;9.90;99.90;;;;;;4984012;28;20145;-75
2021/03/11 10:08:44;;;;;;;11.05;10.55;;;10.00;99.90;;;;;;4992925;28;20104;-75
2021/03/11 10:11:16;;;;;;;11.30;10.48;;;10.00;99.90;;;;;;4997778;28;20081;-75
2021/03/11 10:13:51;;;;;;;10.20;9.70;;;10.10;99.90;;;;;;4985311;28;20076;-74
2021/03/11 10:16:19;;;;;;;;;;;10.10;99.90;;;;;;4986033;28;20078;-75
2021/03/11 10:19:03;;;;;;;10.40;9.52;;;10.10;99.90;;;;;;5006353;28;20345;-75
2021/03/11 10:21:31;;;;;;;9.52;8.93;;;9.90;99.90;;;;;;4987152;28;20121;-75
2021/03/11 10:23:58;;;;;;;7.35;7.05;;;9.60;99.90;;;;;;4966211;28;20055;-74
2021/03/11 10:26:27;;;;;;;8.02;7.38;;;9.30;99.90;;;;;;4985697;28;20069;-75
2021/03/11 10:29:03;;;;;;;6.72;6.32;;;9.00;99.90;;;;;;4982119;28;20078;-74
2021/03/11 10:31:31;;;;;;;4.72;4.25;;;8.70;99.90;;;;;;4986748;28;20049;-73
2021/03/11 10:34:07;;;;;;;4.97;4.50;;;8.60;99.90;;;;;;4985377;28;20082;-74
2021/03/11 10:36:35;;;;;;;6.20;4.22;;;8.50;99.90;;;;;;4986613;28;20167;-75
2021/03/11 10:39:11;;;;;;;4.03;3.53;;;8.40;99.90;;;;;;5003396;28;20725;-75
2021/03/11 10:42:00;;;;;;;6.13;3.25;;;8.30;99.90;;;;;;4979725;28;20396;-74
2021/03/11 10:44:28;;;;;;;4.00;3.40;;;8.20;99.90;;;;;;5000023;28;20128;-74
2021/03/11 10:47:17;;;;;;;3.40;3.10;;;8.10;99.90;;;;;;4968874;28;20137;-75
2021/03/11 10:49:46;;;;;;;4.10;3.58;;;8.10;99.90;;;;;;4984326;28;20503;-74
2021/03/11 10:52:14;;;;;;;5.85;3.53;;;8.20;99.90;;;;;;4966252;28;20056;-74
2021/03/11 10:54:41;;;;;;;2.78;2.67;;;8.20;99.90;;;;;;4986569;28;20077;-74
2021/03/11 10:57:13;;;;;;;3.90;3.40;;;8.10;99.90;;;;;;5000833;28;20092;-74
2021/03/11 11:00:04;;;;;;;3.85;3.33;;;8.20;99.90;;;;;;5001521;28;20053;-76
2021/03/11 11:02:30;;;;;;;4.22;3.92;;;8.20;99.90;;;;;;4984967;28;20046;-75
2021/03/11 11:04:58;;;;;;;4.30;3.97;;;8.20;99.90;;;;;;5001579;28;20074;-74
2021/03/11 11:07:25;;;;;;;5.15;4.75;;;8.30;99.90;;;;;;5016273;28;20081;-75
2021/03/11 11:09:53;;;;;;;4.75;4.55;;;8.50;99.90;;;;;;4964290;28;20047;-75
2021/03/11 11:12:21;;;;;;;5.68;5.38;;;8.60;99.90;;;;;;4978425;28;20118;-76
2021/03/11 11:14:48;;;;;;;6.45;6.15;;;8.90;99.90;;;;;;4995737;28;20364;-77
2021/03/11 11:17:17;;;;;;;6.93;6.63;;;9.10;99.90;;;;;;4972532;28;20070;-75
2021/03/11 11:19:44;;;;;;;7.43;6.82;;;9.50;99.90;;;;;;4965632;28;20431;-74
2021/03/11 11:22:11;;;;;;;10.35;9.85;;;9.80;99.90;;;;;;4978295;28;20042;-74
2021/03/11 11:24:38;;;;;;;13.07;12.45;;;10.00;99.90;;;;;;4984085;28;20109;-74
2021/03/11 11:27:09;;;;;;;12.68;11.77;;;10.30;99.90;;;;;;4983158;28;20527;-74
2021/03/11 11:29:35;;;;;;;12.70;11.63;;;10.50;99.90;;;;;;4984583;28;20054;-75
2021/03/11 11:32:02;;;;;;;12.45;10.00;;;10.60;99.90;;;;;;4982072;28;20050;-75
2021/03/11 11:34:28;;;;;;;11.13;10.35;;;10.60;99.90;;;;;;4981283;28;20089;-75
2021/03/11 11:36:55;;;;;;;9.05;8.27;;;10.60;99.90;;;;;;4966196;28;20069;-75
2021/03/11 11:39:21;;;;;;;8.50;8.07;;;10.80;99.90;;;;;;4982630;28;20057;-74
2021/03/11 11:41:50;;;;;;;15.43;10.27;;;10.80;99.90;;;;;;4992375;28;20408;-74
2021/03/11 11:44:18;;;;;;;9.63;8.93;;;10.70;99.90;;;;;;4988621;28;20154;-74
2021/03/11 11:46:45;;;;;;;9.13;8.57;;;10.50;99.90;;;;;;4985653;28;20050;-75
2021/03/11 11:49:12;;;;;;;10.60;9.63;;;10.50;99.90;;;;;;5000746;28;20050;-74
2021/03/11 11:51:39;;;;;;;8.35;7.60;;;10.70;99.90;;;;;;5000493;28;20081;-73
2021/03/11 11:54:06;;;;;;;11.02;9.25;;;10.80;99.90;;;;;;4999137;28;20153;-73
2021/03/11 11:56:32;;;;;;;13.10;9.20;;;10.90;99.90;;;;;;4999834;28;20068;-74
2021/03/11 11:58:59;;;;;;;11.02;10.18;;;11.00;99.90;;;;;;4986883;28;20086;-74
2021/03/11 12:01:26;;;;;;;12.73;11.40;;;11.00;99.90;;;;;;4983806;28;20137;-74
2021/03/11 12:03:53;;;;;;;18.17;10.10;;;11.20;99.90;;;;;;4984903;28;20519;-74
2021/03/11 12:06:19;;;;;;;12.88;11.38;;;11.20;99.90;;;;;;4985171;28;20062;-74
2021/03/11 12:08:45;;;;;;;17.85;11.77;;;11.30;99.90;;;;;;4984965;28;20668;-74
2021/03/11 12:11:12;;;;;;;10.38;9.68;;;11.60;99.90;;;;;;5000426;28;20062;-76
2021/03/11 12:13:38;;;;;;;11.32;9.85;;;11.50;99.90;;;;;;4980907;28;20046;-73
2021/03/11 12:16:06;;;;;;;12.05;9.85;;;11.60;99.90;;;;;;5000605;28;20144;-73
2021/03/11 12:18:32;;;;;;;11.50;10.40;;;11.80;99.90;;;;;;4982784;28;20081;-75
2021/03/11 12:21:00;;;;;;;10.60;9.68;;;12.00;99.90;;;;;;4950970;28;20054;-76
2021/03/11 12:23:26;;;;;;;18.20;11.27;;;11.90;99.90;;;;;;5000597;28;20060;-76
2021/03/11 12:25:56;;;;;;;13.70;11.63;;;11.90;99.90;;;;;;4984501;28;20058;-75
2021/03/11 12:28:22;;;;;;;10.75;9.77;;;12.10;99.90;;;;;;4982748;28;20054;-75
2021/03/11 12:30:49;;;;;;;11.70;10.60;;;11.90;99.90;;;;;;4987182;28;20046;-74
2021/03/11 12:33:15;;;;;;;10.85;9.90;;;11.80;99.90;;;;;;4989601;28;20160;-74
2021/03/11 12:35:42;;;;;;;9.85;8.98;;;11.80;99.90;;;;;;4988085;28;20106;-74
2021/03/11 12:38:08;;;;;;;12.95;10.15;;;11.90;99.90;;;;;;4996912;28;20055;-74
2021/03/11 12:40:36;;;;;;;10.55;9.77;;;11.80;99.90;;;;;;4998795;28;20112;-75
2021/03/11 12:43:03;;;;;;;16.52;11.25;;;11.90;99.90;;;;;;4981214;28;20137;-76
2021/03/11 12:45:29;;;;;;;12.27;11.02;;;11.90;99.90;;;;;;4989040;28;20065;-75
2021/03/11 12:47:55;;;;;;;9.35;8.65;;;12.00;99.90;;;;;;5004422;28;20077;-75
2021/03/11 12:50:22;;;;;;;11.65;10.48;;;12.10;99.90;;;;;;5003445;28;20503;-73
2021/03/11 12:52:49;;;;;;;11.40;10.23;;;12.00;99.90;;;;;;5019892;28;20042;-73
2021/03/11 12:55:16;;;;;;;13.90;10.52;;;12.00;99.90;;;;;;5020531;28;20419;-74
2021/03/11 12:57:42;;;;;;;15.52;10.35;;;12.10;99.90;;;;;;4984918;28;20054;-74